<?xml version="1.0" encoding="UTF-8"?><gpx creator="Wikiloc - http://www.wikiloc.com" version="1.1" xmlns="http://www.topografix.com/GPX/1/1" xmlns:xsi="http://www.w3.org/2001/XMLSchema-instance" xsi:schemaLocation="http://www.topografix.com/GPX/1/1 http://www.topografix.com/GPX/1/1/gpx.xsd"><trk><name>SL-CC 202 'Sierra de los Ángeles' (Torrecilla de los Angeles...</name><cmt></cmt><desc></desc><trkseg><trkpt lat="40.247950" lon="-6.418330"><ele>481.3</ele><time>2008-07-24T19:16:01Z</time></trkpt><trkpt lat="40.248040" lon="-6.418380"><ele>479.8</ele><time>2008-07-24T19:18:04Z</time></trkpt><trkpt lat="40.248070" lon="-6.418390"><ele>474.5</ele><time>2008-07-24T19:18:44Z</time></trkpt><trkpt lat="40.248050" lon="-6.418390"><ele>476.0</ele><time>2008-07-24T19:21:38Z</time></trkpt><trkpt lat="40.248150" lon="-6.418270"><ele>481.8</ele><time>2008-07-24T19:22:46Z</time></trkpt><trkpt lat="40.248230" lon="-6.418290"><ele>478.4</ele><time>2008-07-24T19:22:59Z</time></trkpt><trkpt lat="40.248350" lon="-6.418470"><ele>478.4</ele><time>2008-07-24T19:23:21Z</time></trkpt><trkpt lat="40.248720" lon="-6.418620"><ele>477.4</ele><time>2008-07-24T19:24:11Z</time></trkpt><trkpt lat="40.249020" lon="-6.418380"><ele>478.9</ele><time>2008-07-24T19:24:45Z</time></trkpt><trkpt lat="40.249060" lon="-6.418380"><ele>480.8</ele><time>2008-07-24T19:25:11Z</time></trkpt><trkpt lat="40.249110" lon="-6.418380"><ele>481.3</ele><time>2008-07-24T19:25:27Z</time></trkpt><trkpt lat="40.249110" lon="-6.418380"><ele>482.2</ele><time>2008-07-24T19:25:49Z</time></trkpt><trkpt lat="40.249140" lon="-6.418370"><ele>483.2</ele><time>2008-07-24T19:26:14Z</time></trkpt><trkpt lat="40.249150" lon="-6.418370"><ele>483.2</ele><time>2008-07-24T19:26:15Z</time></trkpt><trkpt lat="40.249180" lon="-6.418360"><ele>482.7</ele><time>2008-07-24T19:26:18Z</time></trkpt><trkpt lat="40.249420" lon="-6.418350"><ele>483.2</ele><time>2008-07-24T19:26:33Z</time></trkpt><trkpt lat="40.249610" lon="-6.418370"><ele>480.8</ele><time>2008-07-24T19:26:48Z</time></trkpt><trkpt lat="40.249800" lon="-6.418440"><ele>481.8</ele><time>2008-07-24T19:27:03Z</time></trkpt><trkpt lat="40.249910" lon="-6.418500"><ele>481.3</ele><time>2008-07-24T19:27:12Z</time></trkpt><trkpt lat="40.249940" lon="-6.418400"><ele>481.8</ele><time>2008-07-24T19:27:18Z</time></trkpt><trkpt lat="40.249900" lon="-6.418110"><ele>483.7</ele><time>2008-07-24T19:27:33Z</time></trkpt><trkpt lat="40.249980" lon="-6.418080"><ele>486.1</ele><time>2008-07-24T19:27:42Z</time></trkpt><trkpt lat="40.250120" lon="-6.418190"><ele>489.9</ele><time>2008-07-24T19:28:00Z</time></trkpt><trkpt lat="40.250230" lon="-6.418160"><ele>491.9</ele><time>2008-07-24T19:28:11Z</time></trkpt><trkpt lat="40.250360" lon="-6.418000"><ele>495.2</ele><time>2008-07-24T19:28:25Z</time></trkpt><trkpt lat="40.250520" lon="-6.417840"><ele>496.7</ele><time>2008-07-24T19:28:40Z</time></trkpt><trkpt lat="40.250690" lon="-6.417730"><ele>496.7</ele><time>2008-07-24T19:28:54Z</time></trkpt><trkpt lat="40.250850" lon="-6.417630"><ele>497.6</ele><time>2008-07-24T19:29:08Z</time></trkpt><trkpt lat="40.251010" lon="-6.417490"><ele>498.6</ele><time>2008-07-24T19:29:22Z</time></trkpt><trkpt lat="40.251160" lon="-6.417370"><ele>501.5</ele><time>2008-07-24T19:29:36Z</time></trkpt><trkpt lat="40.251320" lon="-6.417270"><ele>502.4</ele><time>2008-07-24T19:29:50Z</time></trkpt><trkpt lat="40.251430" lon="-6.417120"><ele>503.9</ele><time>2008-07-24T19:30:05Z</time></trkpt><trkpt lat="40.251460" lon="-6.417050"><ele>506.3</ele><time>2008-07-24T19:30:17Z</time></trkpt><trkpt lat="40.251480" lon="-6.417110"><ele>506.8</ele><time>2008-07-24T19:30:30Z</time></trkpt><trkpt lat="40.251470" lon="-6.417100"><ele>506.8</ele><time>2008-07-24T19:30:44Z</time></trkpt><trkpt lat="40.251450" lon="-6.417090"><ele>505.3</ele><time>2008-07-24T19:31:10Z</time></trkpt><trkpt lat="40.251430" lon="-6.417090"><ele>504.8</ele><time>2008-07-24T19:31:33Z</time></trkpt><trkpt lat="40.251430" lon="-6.417090"><ele>503.9</ele><time>2008-07-24T19:31:36Z</time></trkpt><trkpt lat="40.251400" lon="-6.417040"><ele>502.9</ele><time>2008-07-24T19:31:50Z</time></trkpt><trkpt lat="40.251480" lon="-6.417080"><ele>502.9</ele><time>2008-07-24T19:32:09Z</time></trkpt><trkpt lat="40.251540" lon="-6.417200"><ele>506.3</ele><time>2008-07-24T19:32:21Z</time></trkpt><trkpt lat="40.251530" lon="-6.417220"><ele>505.8</ele><time>2008-07-24T19:32:34Z</time></trkpt><trkpt lat="40.251500" lon="-6.417200"><ele>505.3</ele><time>2008-07-24T19:33:29Z</time></trkpt><trkpt lat="40.251530" lon="-6.417120"><ele>504.8</ele><time>2008-07-24T19:33:38Z</time></trkpt><trkpt lat="40.251550" lon="-6.417090"><ele>504.4</ele><time>2008-07-24T19:33:51Z</time></trkpt><trkpt lat="40.251540" lon="-6.417090"><ele>503.9</ele><time>2008-07-24T19:33:53Z</time></trkpt><trkpt lat="40.251510" lon="-6.417170"><ele>504.8</ele><time>2008-07-24T19:34:01Z</time></trkpt><trkpt lat="40.251560" lon="-6.417270"><ele>505.8</ele><time>2008-07-24T19:34:07Z</time></trkpt><trkpt lat="40.251700" lon="-6.417500"><ele>508.7</ele><time>2008-07-24T19:34:22Z</time></trkpt><trkpt lat="40.251710" lon="-6.417490"><ele>509.6</ele><time>2008-07-24T19:34:32Z</time></trkpt><trkpt lat="40.251720" lon="-6.417470"><ele>512.0</ele><time>2008-07-24T19:34:41Z</time></trkpt><trkpt lat="40.251750" lon="-6.417510"><ele>513.5</ele><time>2008-07-24T19:34:51Z</time></trkpt><trkpt lat="40.251780" lon="-6.417570"><ele>514.0</ele><time>2008-07-24T19:34:55Z</time></trkpt><trkpt lat="40.251820" lon="-6.417620"><ele>515.9</ele><time>2008-07-24T19:35:06Z</time></trkpt><trkpt lat="40.251940" lon="-6.417830"><ele>514.9</ele><time>2008-07-24T19:35:18Z</time></trkpt><trkpt lat="40.252080" lon="-6.418080"><ele>518.3</ele><time>2008-07-24T19:35:34Z</time></trkpt><trkpt lat="40.252450" lon="-6.418530"><ele>523.6</ele><time>2008-07-24T19:36:11Z</time></trkpt><trkpt lat="40.252670" lon="-6.418710"><ele>532.7</ele><time>2008-07-24T19:36:59Z</time></trkpt><trkpt lat="40.252570" lon="-6.418650"><ele>534.6</ele><time>2008-07-24T19:37:36Z</time></trkpt><trkpt lat="40.252450" lon="-6.418740"><ele>536.5</ele><time>2008-07-24T19:37:48Z</time></trkpt><trkpt lat="40.252350" lon="-6.419010"><ele>537.0</ele><time>2008-07-24T19:38:12Z</time></trkpt><trkpt lat="40.252330" lon="-6.419100"><ele>538.0</ele><time>2008-07-24T19:38:18Z</time></trkpt><trkpt lat="40.252310" lon="-6.419150"><ele>538.5</ele><time>2008-07-24T19:38:22Z</time></trkpt><trkpt lat="40.252240" lon="-6.419410"><ele>541.8</ele><time>2008-07-24T19:38:39Z</time></trkpt><trkpt lat="40.252210" lon="-6.419500"><ele>544.7</ele><time>2008-07-24T19:38:51Z</time></trkpt><trkpt lat="40.252190" lon="-6.419570"><ele>543.8</ele><time>2008-07-24T19:39:07Z</time></trkpt><trkpt lat="40.252150" lon="-6.419730"><ele>549.0</ele><time>2008-07-24T19:39:28Z</time></trkpt><trkpt lat="40.252120" lon="-6.419950"><ele>551.0</ele><time>2008-07-24T19:39:39Z</time></trkpt><trkpt lat="40.252050" lon="-6.420200"><ele>555.8</ele><time>2008-07-24T19:39:54Z</time></trkpt><trkpt lat="40.251990" lon="-6.420420"><ele>557.7</ele><time>2008-07-24T19:40:09Z</time></trkpt><trkpt lat="40.251980" lon="-6.420590"><ele>560.1</ele><time>2008-07-24T19:40:22Z</time></trkpt><trkpt lat="40.251980" lon="-6.420690"><ele>566.3</ele><time>2008-07-24T19:40:30Z</time></trkpt><trkpt lat="40.251970" lon="-6.420740"><ele>568.8</ele><time>2008-07-24T19:40:34Z</time></trkpt><trkpt lat="40.251980" lon="-6.420930"><ele>572.1</ele><time>2008-07-24T19:40:49Z</time></trkpt><trkpt lat="40.251980" lon="-6.421090"><ele>577.4</ele><time>2008-07-24T19:41:01Z</time></trkpt><trkpt lat="40.251990" lon="-6.421310"><ele>581.3</ele><time>2008-07-24T19:41:16Z</time></trkpt><trkpt lat="40.251970" lon="-6.421480"><ele>585.1</ele><time>2008-07-24T19:41:31Z</time></trkpt><trkpt lat="40.251960" lon="-6.421660"><ele>588.0</ele><time>2008-07-24T19:41:45Z</time></trkpt><trkpt lat="40.251930" lon="-6.421830"><ele>592.8</ele><time>2008-07-24T19:41:59Z</time></trkpt><trkpt lat="40.251910" lon="-6.421940"><ele>595.7</ele><time>2008-07-24T19:42:10Z</time></trkpt><trkpt lat="40.251890" lon="-6.422180"><ele>601.4</ele><time>2008-07-24T19:42:27Z</time></trkpt><trkpt lat="40.251890" lon="-6.422220"><ele>601.9</ele><time>2008-07-24T19:42:29Z</time></trkpt><trkpt lat="40.251840" lon="-6.422460"><ele>605.3</ele><time>2008-07-24T19:42:47Z</time></trkpt><trkpt lat="40.251840" lon="-6.422590"><ele>608.2</ele><time>2008-07-24T19:42:58Z</time></trkpt><trkpt lat="40.251880" lon="-6.422830"><ele>609.6</ele><time>2008-07-24T19:43:13Z</time></trkpt><trkpt lat="40.251900" lon="-6.423020"><ele>613.5</ele><time>2008-07-24T19:43:26Z</time></trkpt><trkpt lat="40.251960" lon="-6.423230"><ele>620.7</ele><time>2008-07-24T19:43:53Z</time></trkpt><trkpt lat="40.252020" lon="-6.423250"><ele>620.7</ele><time>2008-07-24T19:44:02Z</time></trkpt><trkpt lat="40.252170" lon="-6.423300"><ele>625.5</ele><time>2008-07-24T19:44:18Z</time></trkpt><trkpt lat="40.252300" lon="-6.423340"><ele>627.9</ele><time>2008-07-24T19:44:31Z</time></trkpt><trkpt lat="40.252440" lon="-6.423390"><ele>631.2</ele><time>2008-07-24T19:44:46Z</time></trkpt><trkpt lat="40.252550" lon="-6.423410"><ele>635.1</ele><time>2008-07-24T19:44:58Z</time></trkpt><trkpt lat="40.252570" lon="-6.423420"><ele>635.6</ele><time>2008-07-24T19:45:01Z</time></trkpt><trkpt lat="40.252670" lon="-6.423500"><ele>639.9</ele><time>2008-07-24T19:45:11Z</time></trkpt><trkpt lat="40.252710" lon="-6.423530"><ele>641.3</ele><time>2008-07-24T19:45:15Z</time></trkpt><trkpt lat="40.252790" lon="-6.423580"><ele>643.7</ele><time>2008-07-24T19:45:28Z</time></trkpt><trkpt lat="40.252820" lon="-6.423580"><ele>644.2</ele><time>2008-07-24T19:45:36Z</time></trkpt><trkpt lat="40.252870" lon="-6.423570"><ele>645.7</ele><time>2008-07-24T19:45:44Z</time></trkpt><trkpt lat="40.252820" lon="-6.423570"><ele>644.7</ele><time>2008-07-24T19:45:50Z</time></trkpt><trkpt lat="40.252780" lon="-6.423500"><ele>645.2</ele><time>2008-07-24T19:46:01Z</time></trkpt><trkpt lat="40.252790" lon="-6.423510"><ele>645.7</ele><time>2008-07-24T19:46:32Z</time></trkpt><trkpt lat="40.252810" lon="-6.423610"><ele>643.7</ele><time>2008-07-24T19:46:36Z</time></trkpt><trkpt lat="40.252970" lon="-6.423610"><ele>643.2</ele><time>2008-07-24T19:46:50Z</time></trkpt><trkpt lat="40.253040" lon="-6.423620"><ele>645.7</ele><time>2008-07-24T19:47:02Z</time></trkpt><trkpt lat="40.253050" lon="-6.423550"><ele>650.0</ele><time>2008-07-24T19:47:14Z</time></trkpt><trkpt lat="40.253070" lon="-6.423520"><ele>651.9</ele><time>2008-07-24T19:47:23Z</time></trkpt><trkpt lat="40.253250" lon="-6.423430"><ele>659.6</ele><time>2008-07-24T19:49:16Z</time></trkpt><trkpt lat="40.253150" lon="-6.423280"><ele>658.6</ele><time>2008-07-24T19:49:41Z</time></trkpt><trkpt lat="40.253090" lon="-6.423250"><ele>660.1</ele><time>2008-07-24T19:49:57Z</time></trkpt><trkpt lat="40.252950" lon="-6.423850"><ele>664.9</ele><time>2008-07-24T19:53:52Z</time></trkpt><trkpt lat="40.252850" lon="-6.424210"><ele>661.1</ele><time>2008-07-24T19:54:07Z</time></trkpt><trkpt lat="40.252670" lon="-6.424690"><ele>662.5</ele><time>2008-07-24T19:55:10Z</time></trkpt><trkpt lat="40.252270" lon="-6.425210"><ele>661.5</ele><time>2008-07-24T19:56:08Z</time></trkpt><trkpt lat="40.252210" lon="-6.425470"><ele>657.2</ele><time>2008-07-24T19:56:24Z</time></trkpt><trkpt lat="40.252340" lon="-6.425750"><ele>655.3</ele><time>2008-07-24T19:56:41Z</time></trkpt><trkpt lat="40.252640" lon="-6.425760"><ele>648.1</ele><time>2008-07-24T19:58:00Z</time></trkpt><trkpt lat="40.253970" lon="-6.424610"><ele>641.8</ele><time>2008-07-24T19:59:42Z</time></trkpt><trkpt lat="40.254870" lon="-6.424160"><ele>640.4</ele><time>2008-07-24T20:01:00Z</time></trkpt><trkpt lat="40.255760" lon="-6.424420"><ele>638.9</ele><time>2008-07-24T20:02:02Z</time></trkpt><trkpt lat="40.256440" lon="-6.424440"><ele>630.3</ele><time>2008-07-24T20:03:05Z</time></trkpt><trkpt lat="40.256430" lon="-6.424740"><ele>630.3</ele><time>2008-07-24T20:04:00Z</time></trkpt><trkpt lat="40.256430" lon="-6.424810"><ele>624.5</ele><time>2008-07-24T20:04:04Z</time></trkpt><trkpt lat="40.256550" lon="-6.425130"><ele>604.3</ele><time>2008-07-24T20:04:24Z</time></trkpt><trkpt lat="40.256810" lon="-6.425630"><ele>594.2</ele><time>2008-07-24T20:04:59Z</time></trkpt><trkpt lat="40.256960" lon="-6.425970"><ele>592.3</ele><time>2008-07-24T20:05:17Z</time></trkpt><trkpt lat="40.257030" lon="-6.426200"><ele>587.5</ele><time>2008-07-24T20:05:31Z</time></trkpt><trkpt lat="40.256980" lon="-6.426380"><ele>582.7</ele><time>2008-07-24T20:05:45Z</time></trkpt><trkpt lat="40.256990" lon="-6.426690"><ele>578.8</ele><time>2008-07-24T20:06:00Z</time></trkpt><trkpt lat="40.257150" lon="-6.426960"><ele>578.4</ele><time>2008-07-24T20:06:16Z</time></trkpt><trkpt lat="40.257370" lon="-6.427070"><ele>576.0</ele><time>2008-07-24T20:06:32Z</time></trkpt><trkpt lat="40.257480" lon="-6.427480"><ele>578.4</ele><time>2008-07-24T20:06:51Z</time></trkpt><trkpt lat="40.257500" lon="-6.427550"><ele>581.7</ele><time>2008-07-24T20:07:02Z</time></trkpt><trkpt lat="40.257510" lon="-6.427590"><ele>581.3</ele><time>2008-07-24T20:07:09Z</time></trkpt><trkpt lat="40.257700" lon="-6.427630"><ele>580.3</ele><time>2008-07-24T20:07:21Z</time></trkpt><trkpt lat="40.257910" lon="-6.427630"><ele>580.8</ele><time>2008-07-24T20:07:34Z</time></trkpt><trkpt lat="40.258070" lon="-6.427540"><ele>580.3</ele><time>2008-07-24T20:07:48Z</time></trkpt><trkpt lat="40.258930" lon="-6.427400"><ele>587.0</ele><time>2008-07-24T20:08:49Z</time></trkpt><trkpt lat="40.259170" lon="-6.427600"><ele>587.0</ele><time>2008-07-24T20:09:07Z</time></trkpt><trkpt lat="40.259380" lon="-6.427770"><ele>585.6</ele><time>2008-07-24T20:09:21Z</time></trkpt><trkpt lat="40.259440" lon="-6.428000"><ele>581.3</ele><time>2008-07-24T20:09:33Z</time></trkpt><trkpt lat="40.259230" lon="-6.428490"><ele>576.0</ele><time>2008-07-24T20:09:54Z</time></trkpt><trkpt lat="40.259110" lon="-6.428630"><ele>576.9</ele><time>2008-07-24T20:10:09Z</time></trkpt><trkpt lat="40.259080" lon="-6.428740"><ele>575.5</ele><time>2008-07-24T20:10:17Z</time></trkpt><trkpt lat="40.259050" lon="-6.429070"><ele>576.0</ele><time>2008-07-24T20:10:32Z</time></trkpt><trkpt lat="40.259170" lon="-6.429320"><ele>576.4</ele><time>2008-07-24T20:10:45Z</time></trkpt><trkpt lat="40.259220" lon="-6.429600"><ele>576.0</ele><time>2008-07-24T20:11:00Z</time></trkpt><trkpt lat="40.259120" lon="-6.429990"><ele>576.0</ele><time>2008-07-24T20:11:15Z</time></trkpt><trkpt lat="40.259120" lon="-6.430380"><ele>576.9</ele><time>2008-07-24T20:11:31Z</time></trkpt><trkpt lat="40.259150" lon="-6.430670"><ele>575.0</ele><time>2008-07-24T20:11:46Z</time></trkpt><trkpt lat="40.259330" lon="-6.430910"><ele>575.0</ele><time>2008-07-24T20:12:00Z</time></trkpt><trkpt lat="40.259530" lon="-6.431130"><ele>578.4</ele><time>2008-07-24T20:12:17Z</time></trkpt><trkpt lat="40.259760" lon="-6.431340"><ele>577.4</ele><time>2008-07-24T20:12:34Z</time></trkpt><trkpt lat="40.259660" lon="-6.431480"><ele>577.9</ele><time>2008-07-24T20:12:43Z</time></trkpt><trkpt lat="40.259510" lon="-6.431700"><ele>577.4</ele><time>2008-07-24T20:12:58Z</time></trkpt><trkpt lat="40.259450" lon="-6.432000"><ele>578.8</ele><time>2008-07-24T20:13:14Z</time></trkpt><trkpt lat="40.259420" lon="-6.432100"><ele>578.4</ele><time>2008-07-24T20:13:28Z</time></trkpt><trkpt lat="40.259440" lon="-6.432050"><ele>579.3</ele><time>2008-07-24T20:13:36Z</time></trkpt><trkpt lat="40.259440" lon="-6.432010"><ele>579.3</ele><time>2008-07-24T20:13:40Z</time></trkpt><trkpt lat="40.259450" lon="-6.432090"><ele>580.3</ele><time>2008-07-24T20:13:44Z</time></trkpt><trkpt lat="40.259470" lon="-6.432210"><ele>583.2</ele><time>2008-07-24T20:13:51Z</time></trkpt><trkpt lat="40.259640" lon="-6.432490"><ele>586.5</ele><time>2008-07-24T20:14:07Z</time></trkpt><trkpt lat="40.259810" lon="-6.432620"><ele>589.9</ele><time>2008-07-24T20:14:21Z</time></trkpt><trkpt lat="40.260020" lon="-6.432650"><ele>588.9</ele><time>2008-07-24T20:14:33Z</time></trkpt><trkpt lat="40.260150" lon="-6.432850"><ele>586.5</ele><time>2008-07-24T20:14:46Z</time></trkpt><trkpt lat="40.260200" lon="-6.433120"><ele>586.5</ele><time>2008-07-24T20:15:01Z</time></trkpt><trkpt lat="40.260210" lon="-6.433360"><ele>590.4</ele><time>2008-07-24T20:15:14Z</time></trkpt><trkpt lat="40.260230" lon="-6.433440"><ele>588.9</ele><time>2008-07-24T20:15:27Z</time></trkpt><trkpt lat="40.260230" lon="-6.433460"><ele>588.9</ele><time>2008-07-24T20:15:28Z</time></trkpt><trkpt lat="40.260060" lon="-6.433600"><ele>588.9</ele><time>2008-07-24T20:15:42Z</time></trkpt><trkpt lat="40.259800" lon="-6.433640"><ele>588.9</ele><time>2008-07-24T20:15:58Z</time></trkpt><trkpt lat="40.259780" lon="-6.433680"><ele>585.1</ele><time>2008-07-24T20:16:09Z</time></trkpt><trkpt lat="40.259700" lon="-6.433790"><ele>583.7</ele><time>2008-07-24T20:16:22Z</time></trkpt><trkpt lat="40.259510" lon="-6.434060"><ele>586.5</ele><time>2008-07-24T20:16:39Z</time></trkpt><trkpt lat="40.259540" lon="-6.434350"><ele>586.1</ele><time>2008-07-24T20:16:53Z</time></trkpt><trkpt lat="40.259660" lon="-6.434660"><ele>585.1</ele><time>2008-07-24T20:17:10Z</time></trkpt><trkpt lat="40.259730" lon="-6.434790"><ele>584.1</ele><time>2008-07-24T20:17:18Z</time></trkpt><trkpt lat="40.259740" lon="-6.434920"><ele>586.5</ele><time>2008-07-24T20:17:23Z</time></trkpt><trkpt lat="40.259600" lon="-6.435110"><ele>588.9</ele><time>2008-07-24T20:17:36Z</time></trkpt><trkpt lat="40.259570" lon="-6.435360"><ele>591.3</ele><time>2008-07-24T20:17:49Z</time></trkpt><trkpt lat="40.259690" lon="-6.435760"><ele>590.4</ele><time>2008-07-24T20:18:09Z</time></trkpt><trkpt lat="40.259620" lon="-6.436090"><ele>588.9</ele><time>2008-07-24T20:18:26Z</time></trkpt><trkpt lat="40.259420" lon="-6.436390"><ele>590.4</ele><time>2008-07-24T20:18:43Z</time></trkpt><trkpt lat="40.259390" lon="-6.436390"><ele>590.9</ele><time>2008-07-24T20:18:45Z</time></trkpt><trkpt lat="40.259320" lon="-6.436340"><ele>592.3</ele><time>2008-07-24T20:18:49Z</time></trkpt><trkpt lat="40.259110" lon="-6.436290"><ele>589.4</ele><time>2008-07-24T20:19:01Z</time></trkpt><trkpt lat="40.258800" lon="-6.436300"><ele>589.4</ele><time>2008-07-24T20:19:18Z</time></trkpt><trkpt lat="40.258540" lon="-6.436220"><ele>589.4</ele><time>2008-07-24T20:19:35Z</time></trkpt><trkpt lat="40.258300" lon="-6.436240"><ele>589.9</ele><time>2008-07-24T20:19:50Z</time></trkpt><trkpt lat="40.257990" lon="-6.436000"><ele>588.9</ele><time>2008-07-24T20:20:11Z</time></trkpt><trkpt lat="40.257650" lon="-6.435810"><ele>592.3</ele><time>2008-07-24T20:20:31Z</time></trkpt><trkpt lat="40.257420" lon="-6.435730"><ele>592.8</ele><time>2008-07-24T20:20:46Z</time></trkpt><trkpt lat="40.257200" lon="-6.435600"><ele>591.8</ele><time>2008-07-24T20:21:01Z</time></trkpt><trkpt lat="40.256940" lon="-6.435460"><ele>592.8</ele><time>2008-07-24T20:21:17Z</time></trkpt><trkpt lat="40.256710" lon="-6.435360"><ele>593.8</ele><time>2008-07-24T20:21:30Z</time></trkpt><trkpt lat="40.256480" lon="-6.435240"><ele>595.2</ele><time>2008-07-24T20:21:43Z</time></trkpt><trkpt lat="40.256310" lon="-6.435130"><ele>595.7</ele><time>2008-07-24T20:21:56Z</time></trkpt><trkpt lat="40.256100" lon="-6.435090"><ele>598.1</ele><time>2008-07-24T20:22:09Z</time></trkpt><trkpt lat="40.255980" lon="-6.435290"><ele>601.4</ele><time>2008-07-24T20:22:21Z</time></trkpt><trkpt lat="40.256070" lon="-6.435580"><ele>600.5</ele><time>2008-07-24T20:22:34Z</time></trkpt><trkpt lat="40.256200" lon="-6.435830"><ele>601.9</ele><time>2008-07-24T20:22:46Z</time></trkpt><trkpt lat="40.256350" lon="-6.436180"><ele>604.3</ele><time>2008-07-24T20:23:06Z</time></trkpt><trkpt lat="40.256440" lon="-6.436500"><ele>604.8</ele><time>2008-07-24T20:23:22Z</time></trkpt><trkpt lat="40.256440" lon="-6.436880"><ele>606.2</ele><time>2008-07-24T20:23:38Z</time></trkpt><trkpt lat="40.256400" lon="-6.437070"><ele>607.7</ele><time>2008-07-24T20:23:45Z</time></trkpt><trkpt lat="40.256180" lon="-6.437070"><ele>609.6</ele><time>2008-07-24T20:23:59Z</time></trkpt><trkpt lat="40.255910" lon="-6.436960"><ele>610.6</ele><time>2008-07-24T20:24:15Z</time></trkpt><trkpt lat="40.255610" lon="-6.436900"><ele>612.5</ele><time>2008-07-24T20:24:32Z</time></trkpt><trkpt lat="40.255260" lon="-6.437030"><ele>618.7</ele><time>2008-07-24T20:24:50Z</time></trkpt><trkpt lat="40.255030" lon="-6.437360"><ele>619.2</ele><time>2008-07-24T20:25:09Z</time></trkpt><trkpt lat="40.254900" lon="-6.437640"><ele>617.3</ele><time>2008-07-24T20:25:23Z</time></trkpt><trkpt lat="40.254750" lon="-6.437870"><ele>615.8</ele><time>2008-07-24T20:25:37Z</time></trkpt><trkpt lat="40.254770" lon="-6.437850"><ele>615.4</ele><time>2008-07-24T20:25:45Z</time></trkpt><trkpt lat="40.254690" lon="-6.437850"><ele>615.4</ele><time>2008-07-24T20:25:53Z</time></trkpt><trkpt lat="40.254530" lon="-6.437920"><ele>616.3</ele><time>2008-07-24T20:26:08Z</time></trkpt><trkpt lat="40.254490" lon="-6.437990"><ele>614.9</ele><time>2008-07-24T20:26:14Z</time></trkpt><trkpt lat="40.254240" lon="-6.438090"><ele>618.7</ele><time>2008-07-24T20:26:30Z</time></trkpt><trkpt lat="40.253750" lon="-6.438560"><ele>617.8</ele><time>2008-07-24T20:27:01Z</time></trkpt><trkpt lat="40.253710" lon="-6.438650"><ele>616.8</ele><time>2008-07-24T20:27:12Z</time></trkpt><trkpt lat="40.253740" lon="-6.438620"><ele>614.9</ele><time>2008-07-24T20:27:23Z</time></trkpt><trkpt lat="40.253750" lon="-6.438600"><ele>610.6</ele><time>2008-07-24T20:27:40Z</time></trkpt><trkpt lat="40.253690" lon="-6.438610"><ele>611.1</ele><time>2008-07-24T20:27:54Z</time></trkpt><trkpt lat="40.253720" lon="-6.438620"><ele>611.1</ele><time>2008-07-24T20:28:10Z</time></trkpt><trkpt lat="40.253590" lon="-6.438720"><ele>613.0</ele><time>2008-07-24T20:28:21Z</time></trkpt><trkpt lat="40.253630" lon="-6.438710"><ele>609.6</ele><time>2008-07-24T20:28:34Z</time></trkpt><trkpt lat="40.253610" lon="-6.438680"><ele>610.1</ele><time>2008-07-24T20:28:36Z</time></trkpt><trkpt lat="40.253570" lon="-6.438470"><ele>610.1</ele><time>2008-07-24T20:28:49Z</time></trkpt><trkpt lat="40.253430" lon="-6.438270"><ele>607.7</ele><time>2008-07-24T20:29:04Z</time></trkpt><trkpt lat="40.253260" lon="-6.438010"><ele>604.3</ele><time>2008-07-24T20:29:19Z</time></trkpt><trkpt lat="40.253070" lon="-6.437800"><ele>602.4</ele><time>2008-07-24T20:29:33Z</time></trkpt><trkpt lat="40.252870" lon="-6.437540"><ele>601.0</ele><time>2008-07-24T20:29:48Z</time></trkpt><trkpt lat="40.252710" lon="-6.437300"><ele>597.6</ele><time>2008-07-24T20:30:04Z</time></trkpt><trkpt lat="40.252250" lon="-6.436940"><ele>595.2</ele><time>2008-07-24T20:30:31Z</time></trkpt><trkpt lat="40.252160" lon="-6.436930"><ele>595.2</ele><time>2008-07-24T20:30:37Z</time></trkpt><trkpt lat="40.251920" lon="-6.437100"><ele>589.9</ele><time>2008-07-24T20:30:53Z</time></trkpt><trkpt lat="40.251590" lon="-6.437270"><ele>588.0</ele><time>2008-07-24T20:31:10Z</time></trkpt><trkpt lat="40.251370" lon="-6.437310"><ele>584.1</ele><time>2008-07-24T20:31:23Z</time></trkpt><trkpt lat="40.251250" lon="-6.437090"><ele>582.7</ele><time>2008-07-24T20:31:34Z</time></trkpt><trkpt lat="40.251140" lon="-6.436870"><ele>578.8</ele><time>2008-07-24T20:31:47Z</time></trkpt><trkpt lat="40.251040" lon="-6.436610"><ele>576.0</ele><time>2008-07-24T20:31:59Z</time></trkpt><trkpt lat="40.250880" lon="-6.436290"><ele>572.6</ele><time>2008-07-24T20:32:14Z</time></trkpt><trkpt lat="40.250790" lon="-6.435970"><ele>568.8</ele><time>2008-07-24T20:32:28Z</time></trkpt><trkpt lat="40.250690" lon="-6.435740"><ele>565.4</ele><time>2008-07-24T20:32:41Z</time></trkpt><trkpt lat="40.250490" lon="-6.435690"><ele>562.0</ele><time>2008-07-24T20:32:54Z</time></trkpt><trkpt lat="40.250300" lon="-6.435830"><ele>560.6</ele><time>2008-07-24T20:33:04Z</time></trkpt><trkpt lat="40.249990" lon="-6.435930"><ele>551.4</ele><time>2008-07-24T20:33:23Z</time></trkpt><trkpt lat="40.249710" lon="-6.435770"><ele>548.6</ele><time>2008-07-24T20:33:36Z</time></trkpt><trkpt lat="40.249480" lon="-6.435510"><ele>542.8</ele><time>2008-07-24T20:33:52Z</time></trkpt><trkpt lat="40.249300" lon="-6.435270"><ele>535.1</ele><time>2008-07-24T20:34:10Z</time></trkpt><trkpt lat="40.249100" lon="-6.435110"><ele>528.9</ele><time>2008-07-24T20:34:27Z</time></trkpt><trkpt lat="40.248830" lon="-6.434900"><ele>523.1</ele><time>2008-07-24T20:34:41Z</time></trkpt><trkpt lat="40.248630" lon="-6.434750"><ele>518.8</ele><time>2008-07-24T20:34:53Z</time></trkpt><trkpt lat="40.248460" lon="-6.434680"><ele>513.5</ele><time>2008-07-24T20:35:05Z</time></trkpt><trkpt lat="40.248330" lon="-6.434570"><ele>508.7</ele><time>2008-07-24T20:35:18Z</time></trkpt><trkpt lat="40.248300" lon="-6.434570"><ele>508.7</ele><time>2008-07-24T20:35:31Z</time></trkpt><trkpt lat="40.248250" lon="-6.434540"><ele>508.2</ele><time>2008-07-24T20:35:40Z</time></trkpt><trkpt lat="40.248260" lon="-6.434570"><ele>509.2</ele><time>2008-07-24T20:35:51Z</time></trkpt><trkpt lat="40.248320" lon="-6.434730"><ele>509.6</ele><time>2008-07-24T20:36:04Z</time></trkpt><trkpt lat="40.248330" lon="-6.434670"><ele>506.3</ele><time>2008-07-24T20:36:39Z</time></trkpt><trkpt lat="40.248320" lon="-6.434630"><ele>504.4</ele><time>2008-07-24T20:36:55Z</time></trkpt><trkpt lat="40.248000" lon="-6.434440"><ele>501.5</ele><time>2008-07-24T20:37:19Z</time></trkpt><trkpt lat="40.247890" lon="-6.434290"><ele>501.5</ele><time>2008-07-24T20:37:30Z</time></trkpt><trkpt lat="40.247850" lon="-6.434220"><ele>501.5</ele><time>2008-07-24T20:37:45Z</time></trkpt><trkpt lat="40.247660" lon="-6.434040"><ele>501.5</ele><time>2008-07-24T20:37:58Z</time></trkpt><trkpt lat="40.247490" lon="-6.433760"><ele>498.6</ele><time>2008-07-24T20:38:13Z</time></trkpt><trkpt lat="40.247340" lon="-6.433590"><ele>496.7</ele><time>2008-07-24T20:38:25Z</time></trkpt><trkpt lat="40.247120" lon="-6.433460"><ele>495.7</ele><time>2008-07-24T20:38:40Z</time></trkpt><trkpt lat="40.246800" lon="-6.433340"><ele>489.4</ele><time>2008-07-24T20:38:59Z</time></trkpt><trkpt lat="40.246470" lon="-6.433320"><ele>482.7</ele><time>2008-07-24T20:39:18Z</time></trkpt><trkpt lat="40.246120" lon="-6.433440"><ele>481.3</ele><time>2008-07-24T20:39:39Z</time></trkpt><trkpt lat="40.245870" lon="-6.433480"><ele>481.3</ele><time>2008-07-24T20:39:54Z</time></trkpt><trkpt lat="40.245620" lon="-6.433300"><ele>480.8</ele><time>2008-07-24T20:40:07Z</time></trkpt><trkpt lat="40.245400" lon="-6.433180"><ele>477.4</ele><time>2008-07-24T20:40:21Z</time></trkpt><trkpt lat="40.245120" lon="-6.433080"><ele>476.5</ele><time>2008-07-24T20:40:37Z</time></trkpt><trkpt lat="40.244890" lon="-6.432940"><ele>474.1</ele><time>2008-07-24T20:40:51Z</time></trkpt><trkpt lat="40.244600" lon="-6.432800"><ele>470.2</ele><time>2008-07-24T20:41:08Z</time></trkpt><trkpt lat="40.244550" lon="-6.432800"><ele>469.3</ele><time>2008-07-24T20:41:14Z</time></trkpt><trkpt lat="40.244510" lon="-6.432780"><ele>469.3</ele><time>2008-07-24T20:41:23Z</time></trkpt><trkpt lat="40.244530" lon="-6.432760"><ele>468.8</ele><time>2008-07-24T20:41:32Z</time></trkpt><trkpt lat="40.244560" lon="-6.432760"><ele>465.4</ele><time>2008-07-24T20:41:42Z</time></trkpt><trkpt lat="40.244590" lon="-6.432840"><ele>464.9</ele><time>2008-07-24T20:41:54Z</time></trkpt><trkpt lat="40.244550" lon="-6.432680"><ele>473.6</ele><time>2008-07-24T20:42:35Z</time></trkpt><trkpt lat="40.244210" lon="-6.431720"><ele>466.9</ele><time>2008-07-24T20:43:23Z</time></trkpt><trkpt lat="40.244190" lon="-6.431440"><ele>467.3</ele><time>2008-07-24T20:43:33Z</time></trkpt><trkpt lat="40.244080" lon="-6.431140"><ele>465.4</ele><time>2008-07-24T20:43:47Z</time></trkpt><trkpt lat="40.243970" lon="-6.430790"><ele>462.5</ele><time>2008-07-24T20:44:06Z</time></trkpt><trkpt lat="40.243870" lon="-6.430320"><ele>458.2</ele><time>2008-07-24T20:44:25Z</time></trkpt><trkpt lat="40.243790" lon="-6.429990"><ele>456.3</ele><time>2008-07-24T20:44:42Z</time></trkpt><trkpt lat="40.243670" lon="-6.429570"><ele>458.7</ele><time>2008-07-24T20:44:58Z</time></trkpt><trkpt lat="40.243560" lon="-6.429230"><ele>460.6</ele><time>2008-07-24T20:45:15Z</time></trkpt><trkpt lat="40.243440" lon="-6.428990"><ele>462.5</ele><time>2008-07-24T20:45:25Z</time></trkpt><trkpt lat="40.243290" lon="-6.428710"><ele>463.5</ele><time>2008-07-24T20:45:38Z</time></trkpt><trkpt lat="40.243130" lon="-6.428420"><ele>464.0</ele><time>2008-07-24T20:45:53Z</time></trkpt><trkpt lat="40.243050" lon="-6.428110"><ele>463.5</ele><time>2008-07-24T20:46:08Z</time></trkpt><trkpt lat="40.242980" lon="-6.427770"><ele>464.9</ele><time>2008-07-24T20:46:24Z</time></trkpt><trkpt lat="40.242890" lon="-6.427490"><ele>464.9</ele><time>2008-07-24T20:46:38Z</time></trkpt><trkpt lat="40.243050" lon="-6.426900"><ele>466.4</ele><time>2008-07-24T20:47:06Z</time></trkpt><trkpt lat="40.243160" lon="-6.426650"><ele>467.3</ele><time>2008-07-24T20:47:19Z</time></trkpt><trkpt lat="40.243260" lon="-6.426240"><ele>467.3</ele><time>2008-07-24T20:47:35Z</time></trkpt><trkpt lat="40.243400" lon="-6.425690"><ele>464.0</ele><time>2008-07-24T20:48:00Z</time></trkpt><trkpt lat="40.243370" lon="-6.425350"><ele>462.5</ele><time>2008-07-24T20:48:14Z</time></trkpt><trkpt lat="40.243360" lon="-6.425260"><ele>460.1</ele><time>2008-07-24T20:48:19Z</time></trkpt><trkpt lat="40.243310" lon="-6.425030"><ele>458.2</ele><time>2008-07-24T20:48:32Z</time></trkpt><trkpt lat="40.243340" lon="-6.424940"><ele>458.2</ele><time>2008-07-24T20:48:36Z</time></trkpt><trkpt lat="40.243480" lon="-6.424550"><ele>459.2</ele><time>2008-07-24T20:48:54Z</time></trkpt><trkpt lat="40.243540" lon="-6.424420"><ele>459.2</ele><time>2008-07-24T20:49:01Z</time></trkpt><trkpt lat="40.243560" lon="-6.424390"><ele>458.7</ele><time>2008-07-24T20:49:03Z</time></trkpt><trkpt lat="40.243710" lon="-6.424050"><ele>458.7</ele><time>2008-07-24T20:49:19Z</time></trkpt><trkpt lat="40.243860" lon="-6.423730"><ele>458.2</ele><time>2008-07-24T20:49:35Z</time></trkpt><trkpt lat="40.243960" lon="-6.423540"><ele>459.2</ele><time>2008-07-24T20:49:47Z</time></trkpt><trkpt lat="40.243970" lon="-6.423510"><ele>458.7</ele><time>2008-07-24T20:49:50Z</time></trkpt><trkpt lat="40.244170" lon="-6.423360"><ele>459.6</ele><time>2008-07-24T20:50:00Z</time></trkpt><trkpt lat="40.244290" lon="-6.423270"><ele>459.6</ele><time>2008-07-24T20:50:05Z</time></trkpt><trkpt lat="40.244270" lon="-6.423130"><ele>461.1</ele><time>2008-07-24T20:50:10Z</time></trkpt><trkpt lat="40.244420" lon="-6.422790"><ele>461.6</ele><time>2008-07-24T20:50:26Z</time></trkpt><trkpt lat="40.244600" lon="-6.422580"><ele>458.2</ele><time>2008-07-24T20:50:40Z</time></trkpt><trkpt lat="40.244740" lon="-6.422500"><ele>454.9</ele><time>2008-07-24T20:50:53Z</time></trkpt><trkpt lat="40.244950" lon="-6.422300"><ele>457.2</ele><time>2008-07-24T20:51:08Z</time></trkpt><trkpt lat="40.245130" lon="-6.422130"><ele>460.6</ele><time>2008-07-24T20:51:22Z</time></trkpt><trkpt lat="40.245270" lon="-6.422010"><ele>460.1</ele><time>2008-07-24T20:51:35Z</time></trkpt><trkpt lat="40.245260" lon="-6.422030"><ele>461.1</ele><time>2008-07-24T20:51:57Z</time></trkpt><trkpt lat="40.245250" lon="-6.422020"><ele>462.0</ele><time>2008-07-24T20:52:27Z</time></trkpt><trkpt lat="40.245230" lon="-6.422010"><ele>461.6</ele><time>2008-07-24T20:52:45Z</time></trkpt><trkpt lat="40.245360" lon="-6.421920"><ele>460.6</ele><time>2008-07-24T20:53:09Z</time></trkpt><trkpt lat="40.245550" lon="-6.421790"><ele>459.2</ele><time>2008-07-24T20:53:23Z</time></trkpt><trkpt lat="40.245800" lon="-6.421560"><ele>459.2</ele><time>2008-07-24T20:53:40Z</time></trkpt><trkpt lat="40.245930" lon="-6.421430"><ele>457.7</ele><time>2008-07-24T20:53:55Z</time></trkpt><trkpt lat="40.245930" lon="-6.421430"><ele>456.8</ele><time>2008-07-24T20:53:59Z</time></trkpt><trkpt lat="40.245910" lon="-6.421450"><ele>457.7</ele><time>2008-07-24T20:54:13Z</time></trkpt><trkpt lat="40.245950" lon="-6.421400"><ele>456.3</ele><time>2008-07-24T20:54:26Z</time></trkpt><trkpt lat="40.245990" lon="-6.421300"><ele>456.8</ele><time>2008-07-24T20:54:30Z</time></trkpt><trkpt lat="40.246060" lon="-6.420980"><ele>457.2</ele><time>2008-07-24T20:54:44Z</time></trkpt><trkpt lat="40.246160" lon="-6.420760"><ele>454.4</ele><time>2008-07-24T20:54:58Z</time></trkpt><trkpt lat="40.246370" lon="-6.420450"><ele>455.8</ele><time>2008-07-24T20:55:14Z</time></trkpt><trkpt lat="40.246520" lon="-6.420220"><ele>460.6</ele><time>2008-07-24T20:55:31Z</time></trkpt><trkpt lat="40.246710" lon="-6.419990"><ele>460.6</ele><time>2008-07-24T20:55:46Z</time></trkpt><trkpt lat="40.246890" lon="-6.419650"><ele>461.6</ele><time>2008-07-24T20:56:04Z</time></trkpt><trkpt lat="40.246940" lon="-6.419400"><ele>460.1</ele><time>2008-07-24T20:56:19Z</time></trkpt><trkpt lat="40.247000" lon="-6.419310"><ele>462.0</ele><time>2008-07-24T20:56:31Z</time></trkpt><trkpt lat="40.247170" lon="-6.419110"><ele>463.0</ele><time>2008-07-24T20:56:45Z</time></trkpt><trkpt lat="40.247430" lon="-6.418820"><ele>463.0</ele><time>2008-07-24T20:57:01Z</time></trkpt><trkpt lat="40.247560" lon="-6.418580"><ele>461.6</ele><time>2008-07-24T20:57:15Z</time></trkpt></trkseg></trk></gpx>